sensor_id;sensor_type;location;lat;lon;timestamp;P1;durP1;ratioP1;P2;durP2;ratioP2
66542;SDS011;53395;37.360;-122.046;2023-03-20T00:02:20;0.25;;;0.10;;
66542;SDS011;53395;37.360;-122.046;2023-03-20T00:05:13;1.05;;;0.20;;
66542;SDS011;53395;37.360;-122.046;2023-03-20T00:07:58;1.25;;;0.20;;
66542;SDS011;53395;37.360;-122.046;2023-03-20T00:10:44;0.28;;;0.20;;
66542;SDS011;53395;37.360;-122.046;2023-03-20T00:13:29;0.63;;;0.30;;
66542;SDS011;53395;37.360;-122.046;2023-03-20T00:16:14;0.13;;;0.10;;
66542;SDS011;53395;37.360;-122.046;2023-03-20T00:18:58;0.22;;;0.20;;
66542;SDS011;53395;37.360;-122.046;2023-03-20T00:21:43;1.50;;;0.30;;
66542;SDS011;53395;37.360;-122.046;2023-03-20T00:24:29;1.55;;;0.30;;
66542;SDS011;53395;37.360;-122.046;2023-03-20T00:27:15;1.63;;;0.20;;
66542;SDS011;53395;37.360;-122.046;2023-03-20T00:30:00;0.50;;;0.20;;
66542;SDS011;53395;37.360;-122.046;2023-03-20T00:32:45;1.05;;;0.30;;
66542;SDS011;53395;37.360;-122.046;2023-03-20T00:35:30;0.93;;;0.10;;
66542;SDS011;53395;37.360;-122.046;2023-03-20T00:38:15;0.30;;;0.10;;
66542;SDS011;53395;37.360;-122.046;2023-03-20T00:40:59;0.90;;;0.30;;
66542;SDS011;53395;37.360;-122.046;2023-03-20T00:43:43;0.63;;;0.20;;
66542;SDS011;53395;37.360;-122.046;2023-03-20T00:46:29;0.57;;;0.20;;
66542;SDS011;53395;37.360;-122.046;2023-03-20T00:49:15;0.90;;;0.10;;
66542;SDS011;53395;37.360;-122.046;2023-03-20T00:52:00;0.10;;;0.10;;
66542;SDS011;53395;37.360;-122.046;2023-03-20T00:54:45;0.85;;;0.17;;
66542;SDS011;53395;37.360;-122.046;2023-03-20T00:57:30;0.70;;;0.10;;
66542;SDS011;53395;37.360;-122.046;2023-03-20T01:00:30;0.05;;;0.03;;
66542;SDS011;53395;37.360;-122.046;2023-03-20T01:03:22;0.20;;;0.10;;
66542;SDS011;53395;37.360;-122.046;2023-03-20T01:06:07;1.85;;;0.20;;
66542;SDS011;53395;37.360;-122.046;2023-03-20T01:08:52;0.10;;;0.10;;
66542;SDS011;53395;37.360;-122.046;2023-03-20T01:11:36;0.10;;;0.10;;
66542;SDS011;53395;37.360;-122.046;2023-03-20T01:14:21;0.00;;;0.00;;
66542;SDS011;53395;37.360;-122.046;2023-03-20T01:17:27;0.10;;;0.10;;
66542;SDS011;53395;37.360;-122.046;2023-03-20T01:20:15;0.25;;;0.10;;
66542;SDS011;53395;37.360;-122.046;2023-03-20T01:23:00;1.92;;;0.85;;
66542;SDS011;53395;37.360;-122.046;2023-03-20T01:25:45;0.30;;;0.10;;
66542;SDS011;53395;37.360;-122.046;2023-03-20T01:28:29;0.10;;;0.08;;
66542;SDS011;53395;37.360;-122.046;2023-03-20T01:31:15;0.03;;;0.03;;
66542;SDS011;53395;37.360;-122.046;2023-03-20T01:34:00;0.30;;;0.10;;
66542;SDS011;53395;37.360;-122.046;2023-03-20T01:36:45;0.03;;;0.03;;
66542;SDS011;53395;37.360;-122.046;2023-03-20T01:39:32;0.17;;;0.10;;
66542;SDS011;53395;37.360;-122.046;2023-03-20T01:42:18;0.77;;;0.20;;
66542;SDS011;53395;37.360;-122.046;2023-03-20T01:45:08;0.00;;;0.00;;
66542;SDS011;53395;37.360;-122.046;2023-03-20T01:47:53;0.28;;;0.10;;
66542;SDS011;53395;37.360;-122.046;2023-03-20T01:50:38;0.25;;;0.10;;
66542;SDS011;53395;37.360;-122.046;2023-03-20T01:53:24;0.20;;;0.10;;
66542;SDS011;53395;37.360;-122.046;2023-03-20T01:56:09;0.22;;;0.10;;
66542;SDS011;53395;37.360;-122.046;2023-03-20T01:58:57;0.43;;;0.10;;
66542;SDS011;53395;37.360;-122.046;2023-03-20T02:01:43;0.10;;;0.10;;
66542;SDS011;53395;37.360;-122.046;2023-03-20T02:04:29;0.20;;;0.10;;
66542;SDS011;53395;37.360;-122.046;2023-03-20T02:07:16;0.30;;;0.20;;
66542;SDS011;53395;37.360;-122.046;2023-03-20T02:10:12;0.20;;;0.13;;
66542;SDS011;53395;37.360;-122.046;2023-03-20T02:12:57;3.88;;;1.42;;
66542;SDS011;53395;37.360;-122.046;2023-03-20T02:15:53;0.15;;;0.10;;
66542;SDS011;53395;37.360;-122.046;2023-03-20T02:18:39;1.80;;;0.10;;
66542;SDS011;53395;37.360;-122.046;2023-03-20T02:30:33;0.73;;;0.30;;
66542;SDS011;53395;37.360;-122.046;2023-03-20T02:42:29;0.30;;;0.10;;
66542;SDS011;53395;37.360;-122.046;2023-03-20T02:57:02;0.43;;;0.00;;
66542;SDS011;53395;37.360;-122.046;2023-03-20T03:02:34;0.13;;;0.10;;
66542;SDS011;53395;37.360;-122.046;2023-03-20T03:05:21;0.65;;;0.20;;
66542;SDS011;53395;37.360;-122.046;2023-03-20T03:08:07;0.55;;;0.20;;
66542;SDS011;53395;37.360;-122.046;2023-03-20T03:11:06;1.48;;;0.25;;
66542;SDS011;53395;37.360;-122.046;2023-03-20T03:13:52;0.43;;;0.10;;
66542;SDS011;53395;37.360;-122.046;2023-03-20T03:16:37;0.22;;;0.10;;
66542;SDS011;53395;37.360;-122.046;2023-03-20T03:19:23;0.52;;;0.20;;
66542;SDS011;53395;37.360;-122.046;2023-03-20T03:22:09;1.35;;;0.20;;
66542;SDS011;53395;37.360;-122.046;2023-03-20T03:24:55;1.05;;;0.25;;
66542;SDS011;53395;37.360;-122.046;2023-03-20T03:27:40;1.38;;;0.32;;
66542;SDS011;53395;37.360;-122.046;2023-03-20T03:30:26;1.38;;;0.30;;
66542;SDS011;53395;37.360;-122.046;2023-03-20T03:36:03;0.43;;;0.20;;
66542;SDS011;53395;37.360;-122.046;2023-03-20T03:39:35;0.32;;;0.13;;
66542;SDS011;53395;37.360;-122.046;2023-03-20T03:45:02;0.28;;;0.20;;
66542;SDS011;53395;37.360;-122.046;2023-03-20T03:47:55;0.20;;;0.15;;
66542;SDS011;53395;37.360;-122.046;2023-03-20T03:50:42;0.20;;;0.10;;
66542;SDS011;53395;37.360;-122.046;2023-03-20T03:53:33;1.73;;;0.10;;
66542;SDS011;53395;37.360;-122.046;2023-03-20T03:56:19;0.40;;;0.10;;
66542;SDS011;53395;37.360;-122.046;2023-03-20T03:59:12;0.13;;;0.10;;
66542;SDS011;53395;37.360;-122.046;2023-03-20T04:01:58;0.15;;;0.08;;
66542;SDS011;53395;37.360;-122.046;2023-03-20T04:04:45;0.10;;;0.10;;
66542;SDS011;53395;37.360;-122.046;2023-03-20T04:07:31;0.22;;;0.10;;
66542;SDS011;53395;37.360;-122.046;2023-03-20T04:10:15;0.10;;;0.10;;
66542;SDS011;53395;37.360;-122.046;2023-03-20T04:13:00;0.32;;;0.10;;
66542;SDS011;53395;37.360;-122.046;2023-03-20T04:15:44;3.15;;;0.52;;
66542;SDS011;53395;37.360;-122.046;2023-03-20T04:18:28;0.35;;;0.10;;
66542;SDS011;53395;37.360;-122.046;2023-03-20T04:21:13;0.20;;;0.10;;
66542;SDS011;53395;37.360;-122.046;2023-03-20T04:23:59;0.10;;;0.10;;
66542;SDS011;53395;37.360;-122.046;2023-03-20T04:26:43;0.47;;;0.15;;
66542;SDS011;53395;37.360;-122.046;2023-03-20T04:29:28;0.10;;;0.10;;
66542;SDS011;53395;37.360;-122.046;2023-03-20T04:32:12;0.30;;;0.10;;
66542;SDS011;53395;37.360;-122.046;2023-03-20T04:34:57;0.40;;;0.10;;
66542;SDS011;53395;37.360;-122.046;2023-03-20T04:37:41;0.25;;;0.10;;
66542;SDS011;53395;37.360;-122.046;2023-03-20T04:40:26;0.15;;;0.10;;
66542;SDS011;53395;37.360;-122.046;2023-03-20T04:43:11;0.28;;;0.10;;
66542;SDS011;53395;37.360;-122.046;2023-03-20T04:45:56;0.52;;;0.10;;
66542;SDS011;53395;37.360;-122.046;2023-03-20T04:48:40;0.13;;;0.10;;
66542;SDS011;53395;37.360;-122.046;2023-03-20T04:51:25;0.40;;;0.10;;
66542;SDS011;53395;37.360;-122.046;2023-03-20T04:54:09;0.52;;;0.10;;
66542;SDS011;53395;37.360;-122.046;2023-03-20T04:56:54;0.10;;;0.10;;
66542;SDS011;53395;37.360;-122.046;2023-03-20T04:59:38;0.50;;;0.15;;
66542;SDS011;53395;37.360;-122.046;2023-03-20T05:02:23;0.20;;;0.10;;
66542;SDS011;53395;37.360;-122.046;2023-03-20T05:05:08;0.15;;;0.10;;
66542;SDS011;53395;37.360;-122.046;2023-03-20T05:07:52;0.57;;;0.20;;
66542;SDS011;53395;37.360;-122.046;2023-03-20T05:10:37;0.28;;;0.10;;
66542;SDS011;53395;37.360;-122.046;2023-03-20T05:13:21;0.10;;;0.05;;
66542;SDS011;53395;37.360;-122.046;2023-03-20T05:16:06;0.30;;;0.10;;
66542;SDS011;53395;37.360;-122.046;2023-03-20T05:18:51;0.30;;;0.10;;
66542;SDS011;53395;37.360;-122.046;2023-03-20T05:21:36;0.30;;;0.20;;
66542;SDS011;53395;37.360;-122.046;2023-03-20T05:24:20;0.30;;;0.10;;
66542;SDS011;53395;37.360;-122.046;2023-03-20T05:27:07;0.88;;;0.10;;
66542;SDS011;53395;37.360;-122.046;2023-03-20T05:29:51;0.63;;;0.20;;
66542;SDS011;53395;37.360;-122.046;2023-03-20T05:32:36;0.10;;;0.10;;
66542;SDS011;53395;37.360;-122.046;2023-03-20T05:35:21;0.10;;;0.10;;
66542;SDS011;53395;37.360;-122.046;2023-03-20T05:38:06;0.10;;;0.03;;
66542;SDS011;53395;37.360;-122.046;2023-03-20T05:40:55;0.13;;;0.10;;
66542;SDS011;53395;37.360;-122.046;2023-03-20T05:43:39;0.00;;;0.00;;
66542;SDS011;53395;37.360;-122.046;2023-03-20T05:46:24;2.00;;;0.10;;
66542;SDS011;53395;37.360;-122.046;2023-03-20T05:49:09;0.85;;;0.10;;
66542;SDS011;53395;37.360;-122.046;2023-03-20T05:51:54;0.30;;;0.15;;
66542;SDS011;53395;37.360;-122.046;2023-03-20T05:54:38;0.22;;;0.10;;
66542;SDS011;53395;37.360;-122.046;2023-03-20T05:57:23;0.00;;;0.00;;
66542;SDS011;53395;37.360;-122.046;2023-03-20T06:00:08;0.20;;;0.10;;
66542;SDS011;53395;37.360;-122.046;2023-03-20T06:02:54;1.10;;;0.15;;
66542;SDS011;53395;37.360;-122.046;2023-03-20T06:05:39;0.17;;;0.10;;
66542;SDS011;53395;37.360;-122.046;2023-03-20T06:08:24;0.85;;;0.10;;
66542;SDS011;53395;37.360;-122.046;2023-03-20T06:11:08;0.15;;;0.15;;
66542;SDS011;53395;37.360;-122.046;2023-03-20T06:13:53;0.32;;;0.10;;
66542;SDS011;53395;37.360;-122.046;2023-03-20T06:16:38;0.10;;;0.03;;
66542;SDS011;53395;37.360;-122.046;2023-03-20T06:19:22;0.10;;;0.10;;
66542;SDS011;53395;37.360;-122.046;2023-03-20T06:22:07;1.27;;;0.20;;
66542;SDS011;53395;37.360;-122.046;2023-03-20T06:24:51;0.22;;;0.10;;
66542;SDS011;53395;37.360;-122.046;2023-03-20T06:27:36;0.10;;;0.10;;
66542;SDS011;53395;37.360;-122.046;2023-03-20T06:30:20;0.65;;;0.10;;
66542;SDS011;53395;37.360;-122.046;2023-03-20T06:33:05;0.43;;;0.20;;
66542;SDS011;53395;37.360;-122.046;2023-03-20T06:35:49;0.47;;;0.20;;
66542;SDS011;53395;37.360;-122.046;2023-03-20T06:38:34;0.20;;;0.10;;
66542;SDS011;53395;37.360;-122.046;2023-03-20T06:41:18;0.13;;;0.08;;
66542;SDS011;53395;37.360;-122.046;2023-03-20T06:44:03;0.28;;;0.10;;
66542;SDS011;53395;37.360;-122.046;2023-03-20T06:46:48;0.65;;;0.20;;
66542;SDS011;53395;37.360;-122.046;2023-03-20T06:49:33;0.17;;;0.00;;
66542;SDS011;53395;37.360;-122.046;2023-03-20T06:52:19;0.15;;;0.10;;
66542;SDS011;53395;37.360;-122.046;2023-03-20T06:55:06;0.10;;;0.10;;
66542;SDS011;53395;37.360;-122.046;2023-03-20T06:57:50;0.63;;;0.10;;
66542;SDS011;53395;37.360;-122.046;2023-03-20T07:00:35;0.63;;;0.20;;
66542;SDS011;53395;37.360;-122.046;2023-03-20T07:03:20;1.23;;;0.10;;
66542;SDS011;53395;37.360;-122.046;2023-03-20T07:06:05;1.02;;;0.20;;
66542;SDS011;53395;37.360;-122.046;2023-03-20T07:08:49;0.25;;;0.10;;
66542;SDS011;53395;37.360;-122.046;2023-03-20T07:11:35;0.25;;;0.10;;
66542;SDS011;53395;37.360;-122.046;2023-03-20T07:14:20;0.70;;;0.10;;
66542;SDS011;53395;37.360;-122.046;2023-03-20T07:17:05;0.08;;;0.08;;
66542;SDS011;53395;37.360;-122.046;2023-03-20T07:19:50;0.52;;;0.20;;
66542;SDS011;53395;37.360;-122.046;2023-03-20T07:22:34;0.30;;;0.10;;
66542;SDS011;53395;37.360;-122.046;2023-03-20T07:25:19;0.10;;;0.10;;
66542;SDS011;53395;37.360;-122.046;2023-03-20T07:28:04;0.05;;;0.05;;
66542;SDS011;53395;37.360;-122.046;2023-03-20T07:30:48;0.30;;;0.13;;
66542;SDS011;53395;37.360;-122.046;2023-03-20T07:33:33;0.35;;;0.10;;
66542;SDS011;53395;37.360;-122.046;2023-03-20T07:36:17;0.17;;;0.10;;
66542;SDS011;53395;37.360;-122.046;2023-03-20T07:39:02;0.03;;;0.03;;
66542;SDS011;53395;37.360;-122.046;2023-03-20T07:41:46;0.17;;;0.10;;
66542;SDS011;53395;37.360;-122.046;2023-03-20T07:44:31;0.43;;;0.10;;
66542;SDS011;53395;37.360;-122.046;2023-03-20T07:47:15;0.20;;;0.10;;
66542;SDS011;53395;37.360;-122.046;2023-03-20T07:50:00;0.13;;;0.10;;
66542;SDS011;53395;37.360;-122.046;2023-03-20T07:52:47;0.13;;;0.10;;
66542;SDS011;53395;37.360;-122.046;2023-03-20T07:55:32;1.40;;;0.10;;
66542;SDS011;53395;37.360;-122.046;2023-03-20T07:58:16;0.03;;;0.03;;
66542;SDS011;53395;37.360;-122.046;2023-03-20T08:01:01;0.03;;;0.03;;
66542;SDS011;53395;37.360;-122.046;2023-03-20T08:03:46;0.10;;;0.10;;
66542;SDS011;53395;37.360;-122.046;2023-03-20T08:06:31;0.13;;;0.10;;
66542;SDS011;53395;37.360;-122.046;2023-03-20T08:09:16;0.00;;;0.00;;
66542;SDS011;53395;37.360;-122.046;2023-03-20T08:12:01;0.28;;;0.10;;
66542;SDS011;53395;37.360;-122.046;2023-03-20T08:14:45;0.00;;;0.00;;
66542;SDS011;53395;37.360;-122.046;2023-03-20T08:17:29;0.00;;;0.00;;
66542;SDS011;53395;37.360;-122.046;2023-03-20T08:20:14;0.10;;;0.00;;
66542;SDS011;53395;37.360;-122.046;2023-03-20T08:22:59;0.08;;;0.00;;
66542;SDS011;53395;37.360;-122.046;2023-03-20T08:25:47;0.20;;;0.10;;
66542;SDS011;53395;37.360;-122.046;2023-03-20T08:28:32;0.00;;;0.00;;
66542;SDS011;53395;37.360;-122.046;2023-03-20T08:31:16;0.00;;;0.00;;
66542;SDS011;53395;37.360;-122.046;2023-03-20T08:34:01;0.10;;;0.10;;
66542;SDS011;53395;37.360;-122.046;2023-03-20T08:36:46;0.10;;;0.10;;
66542;SDS011;53395;37.360;-122.046;2023-03-20T08:39:30;0.10;;;0.10;;
66542;SDS011;53395;37.360;-122.046;2023-03-20T08:42:16;0.10;;;0.00;;
66542;SDS011;53395;37.360;-122.046;2023-03-20T08:45:00;0.00;;;0.00;;
66542;SDS011;53395;37.360;-122.046;2023-03-20T08:47:48;0.15;;;0.08;;
66542;SDS011;53395;37.360;-122.046;2023-03-20T08:50:32;0.30;;;0.10;;
66542;SDS011;53395;37.360;-122.046;2023-03-20T08:53:17;0.10;;;0.10;;
66542;SDS011;53395;37.360;-122.046;2023-03-20T08:56:01;0.25;;;0.10;;
66542;SDS011;53395;37.360;-122.046;2023-03-20T08:58:46;0.00;;;0.00;;
66542;SDS011;53395;37.360;-122.046;2023-03-20T09:01:30;0.00;;;0.00;;
66542;SDS011;53395;37.360;-122.046;2023-03-20T09:04:14;0.10;;;0.10;;
66542;SDS011;53395;37.360;-122.046;2023-03-20T09:06:59;0.60;;;0.10;;
66542;SDS011;53395;37.360;-122.046;2023-03-20T09:09:45;0.10;;;0.10;;
66542;SDS011;53395;37.360;-122.046;2023-03-20T09:12:30;0.15;;;0.10;;
66542;SDS011;53395;37.360;-122.046;2023-03-20T09:15:18;0.00;;;0.00;;
66542;SDS011;53395;37.360;-122.046;2023-03-20T09:18:03;0.03;;;0.03;;
66542;SDS011;53395;37.360;-122.046;2023-03-20T09:20:47;0.00;;;0.00;;
66542;SDS011;53395;37.360;-122.046;2023-03-20T09:23:32;0.22;;;0.10;;
66542;SDS011;53395;37.360;-122.046;2023-03-20T09:26:17;0.20;;;0.10;;
66542;SDS011;53395;37.360;-122.046;2023-03-20T09:29:01;0.00;;;0.00;;
66542;SDS011;53395;37.360;-122.046;2023-03-20T09:31:46;0.75;;;0.10;;
66542;SDS011;53395;37.360;-122.046;2023-03-20T09:34:30;1.15;;;0.10;;
66542;SDS011;53395;37.360;-122.046;2023-03-20T09:37:15;0.00;;;0.00;;
66542;SDS011;53395;37.360;-122.046;2023-03-20T09:39:59;0.10;;;0.10;;
66542;SDS011;53395;37.360;-122.046;2023-03-20T09:42:52;0.10;;;0.08;;
66542;SDS011;53395;37.360;-122.046;2023-03-20T09:45:46;0.00;;;0.00;;
66542;SDS011;53395;37.360;-122.046;2023-03-20T09:48:39;0.10;;;0.10;;
66542;SDS011;53395;37.360;-122.046;2023-03-20T09:51:37;0.25;;;0.10;;
66542;SDS011;53395;37.360;-122.046;2023-03-20T09:57:16;0.10;;;0.10;;
66542;SDS011;53395;37.360;-122.046;2023-03-20T10:00:05;1.83;;;0.10;;
66542;SDS011;53395;37.360;-122.046;2023-03-20T10:03:09;1.05;;;0.10;;
66542;SDS011;53395;37.360;-122.046;2023-03-20T10:05:57;0.57;;;0.45;;
66542;SDS011;53395;37.360;-122.046;2023-03-20T10:08:43;0.10;;;0.10;;
66542;SDS011;53395;37.360;-122.046;2023-03-20T10:20:29;1.98;;;0.30;;
66542;SDS011;53395;37.360;-122.046;2023-03-20T10:23:18;0.80;;;0.32;;
66542;SDS011;53395;37.360;-122.046;2023-03-20T10:28:56;1.08;;;0.25;;
66542;SDS011;53395;37.360;-122.046;2023-03-20T10:37:23;1.75;;;0.20;;
66542;SDS011;53395;37.360;-122.046;2023-03-20T10:48:43;1.13;;;0.20;;
66542;SDS011;53395;37.360;-122.046;2023-03-20T10:54:26;1.77;;;0.20;;
66542;SDS011;53395;37.360;-122.046;2023-03-20T10:57:34;6.20;;;0.52;;
66542;SDS011;53395;37.360;-122.046;2023-03-20T11:00:17;2.58;;;0.20;;
66542;SDS011;53395;37.360;-122.046;2023-03-20T11:03:04;1.15;;;0.25;;
66542;SDS011;53395;37.360;-122.046;2023-03-20T11:05:51;3.50;;;0.40;;
66542;SDS011;53395;37.360;-122.046;2023-03-20T11:08:40;1.77;;;0.30;;
66542;SDS011;53395;37.360;-122.046;2023-03-20T11:11:26;1.58;;;0.40;;
66542;SDS011;53395;37.360;-122.046;2023-03-20T11:14:21;0.38;;;0.10;;
66542;SDS011;53395;37.360;-122.046;2023-03-20T11:17:06;1.63;;;0.30;;
66542;SDS011;53395;37.360;-122.046;2023-03-20T11:19:51;1.33;;;0.28;;
66542;SDS011;53395;37.360;-122.046;2023-03-20T11:22:35;0.22;;;0.10;;
66542;SDS011;53395;37.360;-122.046;2023-03-20T11:25:27;0.90;;;0.10;;
66542;SDS011;53395;37.360;-122.046;2023-03-20T11:28:20;1.60;;;0.20;;
66542;SDS011;53395;37.360;-122.046;2023-03-20T11:31:24;1.55;;;0.10;;
66542;SDS011;53395;37.360;-122.046;2023-03-20T11:36:59;0.77;;;0.20;;
66542;SDS011;53395;37.360;-122.046;2023-03-20T11:39:52;0.32;;;0.10;;
66542;SDS011;53395;37.360;-122.046;2023-03-20T11:42:36;4.50;;;0.30;;
66542;SDS011;53395;37.360;-122.046;2023-03-20T11:45:21;0.55;;;0.20;;
66542;SDS011;53395;37.360;-122.046;2023-03-20T11:48:13;1.20;;;0.55;;
66542;SDS011;53395;37.360;-122.046;2023-03-20T11:51:05;1.73;;;0.30;;
66542;SDS011;53395;37.360;-122.046;2023-03-20T11:53:58;2.10;;;0.40;;
66542;SDS011;53395;37.360;-122.046;2023-03-20T11:56:54;0.93;;;0.35;;
66542;SDS011;53395;37.360;-122.046;2023-03-20T11:59:38;2.20;;;0.28;;
66542;SDS011;53395;37.360;-122.046;2023-03-20T12:02:23;1.20;;;0.25;;
66542;SDS011;53395;37.360;-122.046;2023-03-20T12:05:27;1.65;;;0.30;;
66542;SDS011;53395;37.360;-122.046;2023-03-20T12:08:17;0.70;;;0.20;;
66542;SDS011;53395;37.360;-122.046;2023-03-20T12:14:31;0.95;;;0.20;;
66542;SDS011;53395;37.360;-122.046;2023-03-20T12:34:26;1.63;;;0.30;;
66542;SDS011;53395;37.360;-122.046;2023-03-20T12:37:15;1.70;;;0.40;;
66542;SDS011;53395;37.360;-122.046;2023-03-20T12:40:01;2.40;;;0.28;;
66542;SDS011;53395;37.360;-122.046;2023-03-20T12:45:38;1.67;;;0.30;;
66542;SDS011;53395;37.360;-122.046;2023-03-20T12:54:09;1.42;;;0.25;;
66542;SDS011;53395;37.360;-122.046;2023-03-20T12:59:46;3.80;;;0.45;;
66542;SDS011;53395;37.360;-122.046;2023-03-20T13:06:33;3.92;;;0.50;;
66542;SDS011;53395;37.360;-122.046;2023-03-20T13:26:37;2.45;;;0.22;;
66542;SDS011;53395;37.360;-122.046;2023-03-20T13:37:59;1.30;;;0.22;;
66542;SDS011;53395;37.360;-122.046;2023-03-20T13:46:23;6.68;;;0.65;;
66542;SDS011;53395;37.360;-122.046;2023-03-20T13:49:13;2.00;;;0.45;;
66542;SDS011;53395;37.360;-122.046;2023-03-20T13:52:21;1.55;;;0.32;;
66542;SDS011;53395;37.360;-122.046;2023-03-20T14:00:47;8.20;;;0.60;;
66542;SDS011;53395;37.360;-122.046;2023-03-20T14:03:36;1.92;;;0.30;;
66542;SDS011;53395;37.360;-122.046;2023-03-20T14:09:28;4.35;;;0.60;;
66542;SDS011;53395;37.360;-122.046;2023-03-20T14:12:13;2.72;;;0.70;;
66542;SDS011;53395;37.360;-122.046;2023-03-20T14:14:58;4.05;;;0.70;;
66542;SDS011;53395;37.360;-122.046;2023-03-20T14:17:43;5.10;;;0.50;;
66542;SDS011;53395;37.360;-122.046;2023-03-20T14:20:36;3.60;;;0.50;;
66542;SDS011;53395;37.360;-122.046;2023-03-20T14:23:34;5.97;;;1.02;;
66542;SDS011;53395;37.360;-122.046;2023-03-20T14:26:25;8.32;;;0.70;;
66542;SDS011;53395;37.360;-122.046;2023-03-20T14:35:41;3.13;;;0.50;;
66542;SDS011;53395;37.360;-122.046;2023-03-20T14:41:13;5.20;;;0.43;;
66542;SDS011;53395;37.360;-122.046;2023-03-20T14:44:33;4.32;;;0.68;;
66542;SDS011;53395;37.360;-122.046;2023-03-20T14:47:16;3.35;;;0.30;;
66542;SDS011;53395;37.360;-122.046;2023-03-20T14:50:17;5.03;;;0.70;;
66542;SDS011;53395;37.360;-122.046;2023-03-20T14:53:14;2.53;;;0.60;;
66542;SDS011;53395;37.360;-122.046;2023-03-20T14:58:46;5.80;;;0.60;;
66542;SDS011;53395;37.360;-122.046;2023-03-20T15:07:17;6.30;;;0.60;;
66542;SDS011;53395;37.360;-122.046;2023-03-20T15:10:05;5.32;;;0.70;;
66542;SDS011;53395;37.360;-122.046;2023-03-20T15:12:50;5.22;;;0.52;;
66542;SDS011;53395;37.360;-122.046;2023-03-20T15:15:35;3.13;;;0.60;;
66542;SDS011;53395;37.360;-122.046;2023-03-20T15:18:20;3.88;;;0.65;;
66542;SDS011;53395;37.360;-122.046;2023-03-20T15:21:09;4.28;;;0.70;;
66542;SDS011;53395;37.360;-122.046;2023-03-20T15:23:55;5.53;;;0.68;;
66542;SDS011;53395;37.360;-122.046;2023-03-20T15:26:40;5.50;;;0.88;;
66542;SDS011;53395;37.360;-122.046;2023-03-20T15:29:26;4.03;;;0.57;;
66542;SDS011;53395;37.360;-122.046;2023-03-20T15:32:12;4.63;;;0.90;;
66542;SDS011;53395;37.360;-122.046;2023-03-20T15:34:57;5.60;;;0.85;;
66542;SDS011;53395;37.360;-122.046;2023-03-20T15:37:42;7.88;;;1.20;;
66542;SDS011;53395;37.360;-122.046;2023-03-20T15:40:28;9.20;;;1.08;;
66542;SDS011;53395;37.360;-122.046;2023-03-20T15:43:17;6.47;;;0.77;;
66542;SDS011;53395;37.360;-122.046;2023-03-20T15:46:02;2.30;;;0.60;;
66542;SDS011;53395;37.360;-122.046;2023-03-20T15:48:47;6.65;;;1.33;;
66542;SDS011;53395;37.360;-122.046;2023-03-20T15:51:31;5.93;;;1.00;;
66542;SDS011;53395;37.360;-122.046;2023-03-20T15:54:17;5.78;;;1.13;;
66542;SDS011;53395;37.360;-122.046;2023-03-20T15:57:02;6.68;;;0.85;;
66542;SDS011;53395;37.360;-122.046;2023-03-20T15:59:48;6.97;;;1.05;;
66542;SDS011;53395;37.360;-122.046;2023-03-20T16:02:33;7.00;;;0.88;;
66542;SDS011;53395;37.360;-122.046;2023-03-20T16:05:18;4.88;;;0.80;;
66542;SDS011;53395;37.360;-122.046;2023-03-20T16:10:47;3.35;;;0.68;;
66542;SDS011;53395;37.360;-122.046;2023-03-20T16:13:33;5.55;;;0.80;;
66542;SDS011;53395;37.360;-122.046;2023-03-20T16:16:20;4.10;;;0.70;;
66542;SDS011;53395;37.360;-122.046;2023-03-20T16:19:06;7.63;;;0.68;;
66542;SDS011;53395;37.360;-122.046;2023-03-20T16:22:01;3.90;;;0.77;;
66542;SDS011;53395;37.360;-122.046;2023-03-20T16:24:49;3.38;;;0.60;;
66542;SDS011;53395;37.360;-122.046;2023-03-20T16:27:34;2.10;;;0.52;;
66542;SDS011;53395;37.360;-122.046;2023-03-20T16:30:21;4.53;;;0.70;;
66542;SDS011;53395;37.360;-122.046;2023-03-20T16:33:12;4.18;;;0.68;;
66542;SDS011;53395;37.360;-122.046;2023-03-20T16:35:57;3.75;;;0.50;;
66542;SDS011;53395;37.360;-122.046;2023-03-20T16:41:31;6.18;;;0.70;;
66542;SDS011;53395;37.360;-122.046;2023-03-20T16:44:17;6.53;;;0.90;;
66542;SDS011;53395;37.360;-122.046;2023-03-20T16:49:50;1.17;;;0.40;;
66542;SDS011;53395;37.360;-122.046;2023-03-20T16:52:36;3.42;;;0.50;;
66542;SDS011;53395;37.360;-122.046;2023-03-20T16:55:22;3.42;;;0.60;;
66542;SDS011;53395;37.360;-122.046;2023-03-20T16:58:07;3.65;;;0.82;;
66542;SDS011;53395;37.360;-122.046;2023-03-20T17:01:02;3.13;;;0.63;;
66542;SDS011;53395;37.360;-122.046;2023-03-20T17:03:49;3.83;;;0.63;;
66542;SDS011;53395;37.360;-122.046;2023-03-20T17:06:34;4.50;;;0.70;;
66542;SDS011;53395;37.360;-122.046;2023-03-20T17:12:12;6.72;;;1.30;;
66542;SDS011;53395;37.360;-122.046;2023-03-20T17:14:57;3.25;;;0.57;;
66542;SDS011;53395;37.360;-122.046;2023-03-20T17:17:41;4.38;;;0.60;;
66542;SDS011;53395;37.360;-122.046;2023-03-20T17:20:26;2.45;;;0.80;;
66542;SDS011;53395;37.360;-122.046;2023-03-20T17:23:12;3.35;;;0.65;;
66542;SDS011;53395;37.360;-122.046;2023-03-20T17:25:56;2.33;;;0.68;;
66542;SDS011;53395;37.360;-122.046;2023-03-20T17:28:41;1.52;;;0.55;;
66542;SDS011;53395;37.360;-122.046;2023-03-20T17:31:26;5.38;;;1.10;;
66542;SDS011;53395;37.360;-122.046;2023-03-20T17:34:14;1.50;;;0.40;;
66542;SDS011;53395;37.360;-122.046;2023-03-20T17:36:58;0.80;;;0.30;;
66542;SDS011;53395;37.360;-122.046;2023-03-20T17:39:45;3.80;;;0.57;;
66542;SDS011;53395;37.360;-122.046;2023-03-20T17:42:30;2.72;;;0.47;;
66542;SDS011;53395;37.360;-122.046;2023-03-20T17:45:15;5.53;;;0.73;;
66542;SDS011;53395;37.360;-122.046;2023-03-20T17:48:01;4.47;;;0.60;;
66542;SDS011;53395;37.360;-122.046;2023-03-20T17:50:46;3.13;;;0.60;;
66542;SDS011;53395;37.360;-122.046;2023-03-20T17:53:33;5.57;;;0.60;;
66542;SDS011;53395;37.360;-122.046;2023-03-20T17:56:17;5.90;;;0.95;;
66542;SDS011;53395;37.360;-122.046;2023-03-20T17:59:02;6.20;;;1.00;;
66542;SDS011;53395;37.360;-122.046;2023-03-20T18:01:46;6.10;;;1.20;;
66542;SDS011;53395;37.360;-122.046;2023-03-20T18:04:30;8.25;;;1.30;;
66542;SDS011;53395;37.360;-122.046;2023-03-20T18:07:15;5.25;;;0.70;;
66542;SDS011;53395;37.360;-122.046;2023-03-20T18:10:00;6.85;;;0.90;;
66542;SDS011;53395;37.360;-122.046;2023-03-20T18:12:44;5.90;;;1.00;;
66542;SDS011;53395;37.360;-122.046;2023-03-20T18:15:29;6.07;;;0.90;;
66542;SDS011;53395;37.360;-122.046;2023-03-20T18:18:14;8.75;;;1.00;;
66542;SDS011;53395;37.360;-122.046;2023-03-20T18:20:59;5.43;;;0.82;;
66542;SDS011;53395;37.360;-122.046;2023-03-20T18:23:43;6.72;;;0.98;;
66542;SDS011;53395;37.360;-122.046;2023-03-20T18:26:28;4.38;;;0.85;;
66542;SDS011;53395;37.360;-122.046;2023-03-20T18:29:12;6.72;;;1.02;;
66542;SDS011;53395;37.360;-122.046;2023-03-20T18:31:57;5.65;;;0.90;;
66542;SDS011;53395;37.360;-122.046;2023-03-20T18:34:41;3.80;;;0.70;;
66542;SDS011;53395;37.360;-122.046;2023-03-20T18:37:25;3.60;;;0.90;;
66542;SDS011;53395;37.360;-122.046;2023-03-20T18:40:21;9.55;;;3.80;;
66542;SDS011;53395;37.360;-122.046;2023-03-20T18:43:06;3.53;;;0.70;;
66542;SDS011;53395;37.360;-122.046;2023-03-20T18:45:50;6.05;;;0.75;;
66542;SDS011;53395;37.360;-122.046;2023-03-20T18:48:35;8.32;;;1.05;;
66542;SDS011;53395;37.360;-122.046;2023-03-20T18:51:19;9.27;;;1.17;;
66542;SDS011;53395;37.360;-122.046;2023-03-20T18:54:04;3.85;;;0.85;;
66542;SDS011;53395;37.360;-122.046;2023-03-20T18:56:48;4.53;;;0.85;;
66542;SDS011;53395;37.360;-122.046;2023-03-20T18:59:34;5.57;;;0.77;;